My Meet Scores
Kate Nitschke, St. Charles Gymnastics Academy - MyMeetScores.com
Top100 | Top Teams | Upcoming Meets | Completed Meets | Latest | Add Scores | Help| Support | Bookmark and Share

Kate Nitschke, St. Charles Gymnastics Academy
Personal Bests
LevelVault BarsBeamFloorAA
68.1009.175 9.2258.60035.050
79.3509.475 9.6759.60037.200
88.4009.450 9.4759.27536.100
Meet Scores
Date Meet Team Session Level Division Vault Bars Beam Floor AA
2018-04-20 2018 Region 5 Levels 7/8 Championships St. Charles Gymnastics Academy 04B 8 Sr B1 7.550 30 6.975 29 9.175 8T 8.950 23T 32.650 28
2018-03-23 Illinois Level 7 & 8 State Competition St. Charles Gymnastics Academy 02 8 Sr B 8.400 25 9.050 10T 9.375 2 9.275 11 36.100 11
2018-02-23 Kinetic Classic St. Charles Gymnastics Academy 2 8 Older 8.400 28T 7.900 35 8.600 25 9.100 22T 34.000 27
2018-02-16 Big Classic St. Charles Gymnastics Academy 6A 8 Junior B 8.100 7 9.450 3T 9.325 1T 9.225 5 36.100 3
2018-01-19 2018 SCEGA California Classic St. Charles Gymnastics Academy 4G 8 Junior B 8.100 5 8.050 6 9.475 1 9.050 3T 34.675 3
2018-01-12 St Jude Benefit Meet St. Charles Gymnastics Academy 3B 8 SrA 8.350 9 8.925 9 9.275 2 9.150 5 35.700 5
2017-12-14 2017 Women's Hawaiian Pineapple Classic St. Charles Gymnastics Academy 5A 8 Age13 8.300 9 5.650 14 9.325 3 9.050 2 32.325 10
2017-12-01 Ultimate Wish Classic St. Charles Gymnastics Academy 2 8 JR 8.100 14 9.075 6 8.600 7 8.500 13 34.275 9
2017-11-17 SCGA Classic St. Charles Gymnastics Academy 3 8 All 8.350 5 9.000 5 8.950 3 8.850 6 35.150 5
2017-03-23 2017 Illinois Level 6, 7 State Championship St. Charles Gymnastics Academy 3 7 Sr A 9.350 20T 8.675 22 9.575 1 9.500 4T 37.100 12
2017-02-24 Kinetic Classic St. Charles Gymnastics Academy 1 7 All Ages 8.700 47T 9.475 9T 9.325 7 9.375 9T 36.875 12
2017-02-10 IGI Chicago Style Gymnastics Meet St. Charles Gymnastics Academy 121S 7 SrA 8.850 15 7.675 21 9.550 2 9.300 11 35.375 14
2017-01-25 Metroplex Challenge - White Gym St. Charles Gymnastics Academy 02W 7 Sr A 9.350 11T 9.050 6T 9.575 1 8.700 15 36.675 7
2017-01-20 2017 Bravo Classic St. Charles Gymnastics Academy 11A 7 12+yrs 9.050 22 8.650 18 9.675 2 9.450 3T 36.825 9
2016-12-15 2016 Hawaiian Pineapple Sanction St. Charles Gymnastics Academy 9B 7 Age 12 8.475 11T 8.950 5 9.075 2 9.400 2 35.900 4T
2016-12-02 Ultimate Wish Classic St. Charles Gymnastics Academy 2 7 Junior 8.650 10 9.000 2 8.800 4 9.600 1 36.050 2
2016-04-01 2016 Illinois Level 6 & 7 State Championships St. Charles Gymnastics Academy 05 7 L7 Jr D 9.100 30 9.150 10 9.375 4T 9.575 3T 37.200 11
2016-01-22 King Arthur Invitational St. Charles Gymnastics Academy S5 7 Jr.B 8.800 14 8.950 9 9.500 2 9.375 2 36.625 5
2016-01-08 St Jude Benefit Meet St. Charles Gymnastics Academy 3B 7 Child 8.700 16 9.000 3T 9.425 2 9.100 4T 36.225 4
2015-12-17 2015 Hawaiian Pineapple Classic St. Charles Gymnastics Academy 6B 7 Ages 9-11 8.750 18T 9.250 6 9.300 5 8.825 19 36.125 14
2015-12-04 2015 Ultimate Wish Classic St. Charles Gymnastics Academy 1 7 All 8.850 37 9.100 14 9.325 9 9.250 10 36.525 10
2015-05-02 2015 Illinois Level 6, 7 State Championships Excel Gymnastics Academy 6 Youth-E 8.100 23 9.175 6 9.225 9 8.550 23 35.050 17
2015-02-20 Midwest Open 2015 Excel Gymnastics Academy 9B 6 11 8.100 11 8.850 7 9.050 6 8.600 11 34.600 10

www.lazysuits.com